Time;durP1;ratioP1;P1;durP2;ratioP2;P2;SDS_P1;SDS_P2;PMS_P1;PMS_P2;Temp;Humidity;BMP_temperature;BMP_pressure;BME280_temperature;BME280_humidity;BME280_pressure;Samples;Min_cycle;Max_cycle;Signal;HPM_P1;HPM_P2
2022/11/08 00:02:48;;;;;;;6.90;5.68;;;;;;;11.31;80.13;98672.97;5054862;27;102656;-74
2022/11/08 00:16:23;;;;;;;7.70;6.00;;;;;;;11.43;78.55;98674.72;5062476;27;102578;-74
2022/11/08 00:18:51;;;;;;;6.57;5.40;;;;;;;11.33;79.35;98672.88;5061396;27;103907;-74
2022/11/08 00:21:18;;;;;;;6.88;5.47;;;;;;;11.65;78.02;98668.59;5061483;27;103366;-74
2022/11/08 00:23:46;;;;;;;7.13;6.13;;;;;;;11.41;78.76;98667.84;5060347;27;102718;-74
2022/11/08 00:26:14;;;;;;;7.07;5.35;;;;;;;11.60;78.18;98661.03;5062060;27;102775;-74
2022/11/08 00:28:42;;;;;;;6.15;5.25;;;;;;;11.71;77.45;98657.59;5040008;27;104387;-74
2022/11/08 00:31:09;;;;;;;6.25;5.07;;;;;;;11.66;78.02;98659.72;5040874;27;102978;-74
2022/11/08 00:33:38;;;;;;;5.83;4.60;;;;;;;11.83;77.19;98656.63;5059145;27;102882;-74
2022/11/08 00:36:07;;;;;;;5.87;4.83;;;;;;;11.85;76.56;98664.44;5061530;27;104707;-74
2022/11/08 00:38:34;;;;;;;7.07;5.35;;;;;;;11.91;75.99;98664.81;5059668;27;103289;-74
2022/11/08 00:41:02;;;;;;;7.47;5.88;;;;;;;11.81;76.30;98660.38;5062542;27;103390;-74
2022/11/08 00:43:30;;;;;;;4.80;4.30;;;;;;;11.81;76.70;98653.28;5064967;27;102812;-74
2022/11/08 00:45:58;;;;;;;6.10;5.50;;;;;;;11.93;75.99;98649.66;5043348;27;102786;-74
2022/11/08 00:48:25;;;;;;;7.70;5.03;;;;;;;11.87;75.95;98655.47;5061226;27;103651;-74
2022/11/08 00:50:54;;;;;;;7.10;6.28;;;;;;;11.77;75.88;98650.97;5061000;27;103475;-74
2022/11/08 00:53:22;;;;;;;7.40;5.70;;;;;;;11.64;76.02;98646.63;5062198;27;102895;-74
2022/11/08 00:55:58;;;;;;;6.75;5.70;;;;;;;11.59;76.71;98650.59;5063632;27;104644;-74
2022/11/08 00:58:26;;;;;;;6.85;6.10;;;;;;;11.52;77.29;98650.19;5061028;27;103861;-74
2022/11/08 01:00:55;;;;;;;7.70;5.63;;;;;;;11.68;76.80;98641.09;5038273;27;104422;-74
2022/11/08 01:03:26;;;;;;;5.43;4.90;;;;;;;11.60;76.67;98644.31;5060412;27;103009;-74
2022/11/08 01:05:55;;;;;;;7.72;6.10;;;;;;;11.36;76.98;98647.06;5062088;27;104368;-74
2022/11/08 01:08:23;;;;;;;6.18;5.43;;;;;;;11.59;76.79;98642.66;5063227;27;104053;-74
2022/11/08 01:10:53;;;;;;;9.25;6.50;;;;;;;11.43;75.77;98636.81;5056199;27;103186;-74
2022/11/08 01:13:21;;;;;;;10.02;7.00;;;;;;;10.90;78.55;98628.50;5064344;27;104051;-74
2022/11/08 01:15:49;;;;;;;7.32;6.30;;;;;;;11.29;78.08;98624.66;5043762;27;104093;-74
2022/11/08 01:18:18;;;;;;;7.63;6.25;;;;;;;11.26;78.10;98632.81;5043729;27;105477;-73
2022/11/08 01:20:48;;;;;;;7.07;6.38;;;;;;;11.17;78.73;98636.16;5038152;27;103852;-74
2022/11/08 01:23:20;;;;;;;8.18;6.82;;;;;;;11.19;77.32;98630.78;5044990;27;103163;-74
2022/11/08 01:25:49;;;;;;;8.63;7.23;;;;;;;10.74;78.86;98622.69;5056554;27;103323;-74
2022/11/08 01:28:17;;;;;;;9.55;7.60;;;;;;;10.60;80.86;98617.56;5060707;27;103334;-74
2022/11/08 01:30:46;;;;;;;10.48;8.30;;;;;;;9.95;83.74;98617.03;5061779;27;103279;-74
2022/11/08 01:33:15;;;;;;;12.57;8.70;;;;;;;9.75;85.07;98626.34;5062168;27;103732;-73
2022/11/08 01:35:45;;;;;;;8.93;7.90;;;;;;;10.13;84.52;98628.09;5065649;27;103085;-73
2022/11/08 01:38:13;;;;;;;8.68;6.57;;;;;;;10.72;81.45;98619.28;5038025;27;104063;-74
2022/11/08 01:40:47;;;;;;;13.13;8.13;;;;;;;10.79;79.89;98620.53;5061957;27;103251;-74
2022/11/08 01:43:32;;;;;;;8.05;6.68;;;;;;;10.99;79.37;98611.13;5055996;27;102695;-74
2022/11/08 01:46:37;;;;;;;7.68;6.88;;;;;;;11.16;78.12;98608.06;5059842;27;102772;-74
2022/11/08 01:49:27;;;;;;;9.10;8.00;;;;;;;10.62;79.17;98601.59;5042196;27;104244;-74
2022/11/08 01:52:06;;;;;;;9.48;8.02;;;;;;;10.42;80.30;98605.72;5059551;27;103224;-74
2022/11/08 01:54:39;;;;;;;7.60;6.85;;;;;;;10.57;81.33;98598.47;5063246;27;102770;-74
2022/11/08 01:57:11;;;;;;;9.50;7.10;;;;;;;10.48;81.34;98592.06;5059344;27;103031;-74
2022/11/08 01:59:43;;;;;;;7.90;6.32;;;;;;;10.77;80.33;98581.97;5040971;27;104406;-74
2022/11/08 02:02:12;;;;;;;7.30;6.15;;;;;;;10.88;79.29;98582.88;5050295;27;103006;-76
2022/11/08 02:04:42;;;;;;;9.77;7.35;;;;;;;10.71;80.39;98585.94;5043813;27;102904;-74
2022/11/08 02:07:12;;;;;;;8.10;6.88;;;;;;;10.88;79.65;98572.28;5042461;27;103203;-74
2022/11/08 02:09:43;;;;;;;9.50;7.45;;;;;;;10.35;80.27;98570.16;5056893;27;104133;-74
2022/11/08 02:12:14;;;;;;;11.03;7.93;;;;;;;10.19;81.15;98566.97;5056771;27;104973;-74
2022/11/08 02:14:42;;;;;;;8.07;6.90;;;;;;;10.52;81.54;98566.25;5039144;27;102817;-74
2022/11/08 02:17:10;;;;;;;8.53;7.20;;;;;;;10.52;81.31;98561.84;5060474;27;103902;-73
2022/11/08 02:19:44;;;;;;;8.52;7.57;;;;;;;10.32;82.19;98562.44;5055711;27;104128;-73
2022/11/08 02:22:26;;;;;;;8.00;7.03;;;;;;;10.48;80.73;98557.72;5053395;27;102980;-74
2022/11/08 02:24:57;;;;;;;9.90;6.78;;;;;;;10.58;80.60;98548.19;5056644;27;102887;-74
2022/11/08 02:27:25;;;;;;;9.73;7.57;;;;;;;10.62;80.46;98554.91;5059731;27;103753;-74
2022/11/08 02:29:54;;;;;;;8.23;6.85;;;;;;;10.51;80.88;98551.38;5056638;27;103811;-74
2022/11/08 02:32:21;;;;;;;8.85;7.10;;;;;;;10.13;82.88;98547.13;5055206;27;102892;-73
2022/11/08 02:34:54;;;;;;;8.73;7.60;;;;;;;10.19;82.66;98549.28;5055933;27;103013;-73
2022/11/08 02:37:23;;;;;;;11.23;7.03;;;;;;;10.42;81.85;98537.88;5057031;27;102949;-74
2022/11/08 02:39:51;;;;;;;7.97;6.70;;;;;;;10.65;80.58;98544.09;5060841;27;104376;-74
2022/11/08 02:42:20;;;;;;;7.57;6.73;;;;;;;10.67;79.92;98536.91;5058551;27;104987;-74
2022/11/08 02:44:51;;;;;;;7.07;6.35;;;;;;;10.58;80.54;98536.75;5060084;27;102838;-73
2022/11/08 02:47:18;;;;;;;9.37;7.07;;;;;;;10.30;81.54;98532.69;5060194;27;104211;-74
2022/11/08 02:49:48;;;;;;;9.93;6.72;;;;;;;10.25;82.05;98529.50;5061826;27;103399;-74
2022/11/08 02:52:16;;;;;;;7.95;6.93;;;;;;;10.30;82.05;98532.69;5059781;27;103122;-73
2022/11/08 02:54:44;;;;;;;7.43;6.28;;;;;;;10.35;81.73;98526.09;5040958;27;103699;-73
2022/11/08 02:57:14;;;;;;;9.67;6.70;;;;;;;10.43;80.52;98528.16;5056177;27;103891;-74
2022/11/08 02:59:43;;;;;;;7.57;6.50;;;;;;;10.63;80.08;98518.75;5039762;27;104234;-74
2022/11/08 03:02:11;;;;;;;6.73;5.90;;;;;;;10.70;79.13;98523.47;5054571;27;103305;-74
2022/11/08 03:04:39;;;;;;;5.45;4.95;;;;;;;10.84;79.08;98522.41;5056643;27;104217;-74
2022/11/08 03:07:06;;;;;;;6.90;6.10;;;;;;;10.81;78.54;98522.63;5035339;27;103832;-73
2022/11/08 03:09:34;;;;;;;6.00;5.40;;;;;;;10.91;78.34;98524.50;5055786;27;104073;-73
2022/11/08 03:12:02;;;;;;;6.03;5.25;;;;;;;10.92;77.45;98520.88;5039005;27;103471;-74
2022/11/08 03:14:30;;;;;;;8.10;5.82;;;;;;;10.82;77.34;98519.03;5060493;27;102779;-74
2022/11/08 03:16:59;;;;;;;7.53;6.07;;;;;;;10.65;78.14;98524.75;5054346;27;103993;-73
2022/11/08 03:19:27;;;;;;;6.65;5.60;;;;;;;10.80;78.30;98510.41;5042345;27;104339;-74
2022/11/08 03:21:54;;;;;;;7.10;6.00;;;;;;;10.48;78.57;98515.47;5032844;27;103170;-75
2022/11/08 03:24:22;;;;;;;7.80;5.90;;;;;;;10.63;78.81;98514.31;5035372;27;103047;-73
2022/11/08 03:26:50;;;;;;;5.63;4.90;;;;;;;10.76;78.46;98515.06;5059369;27;104346;-74
2022/11/08 03:29:18;;;;;;;6.78;5.57;;;;;;;10.71;78.03;98522.50;5042048;27;104351;-74
2022/11/08 03:31:46;;;;;;;5.93;5.13;;;;;;;10.74;77.78;98524.91;5056588;27;103028;-74
2022/11/08 03:34:15;;;;;;;6.25;4.60;;;;;;;10.84;77.46;98527.69;5038736;27;103238;-73
2022/11/08 03:36:45;;;;;;;5.90;5.13;;;;;;;10.83;77.48;98521.59;5039095;27;102800;-74
2022/11/08 03:39:13;;;;;;;7.47;5.50;;;;;;;10.60;78.01;98524.28;5039908;27;103470;-74
2022/11/08 03:41:40;;;;;;;5.63;5.05;;;;;;;10.74;77.70;98521.44;5056143;27;103050;-73
2022/11/08 03:44:08;;;;;;;5.78;4.90;;;;;;;10.75;77.68;98520.47;5059305;27;102766;-74
2022/11/08 03:46:36;;;;;;;6.70;5.60;;;;;;;10.74;78.09;98524.91;5061757;27;103013;-74
2022/11/08 03:49:04;;;;;;;5.55;4.65;;;;;;;10.87;77.46;98522.19;5058769;27;103402;-74
2022/11/08 03:51:33;;;;;;;6.10;5.35;;;;;;;10.77;77.25;98523.84;5063338;27;102651;-74
2022/11/08 03:54:01;;;;;;;5.88;4.65;;;;;;;10.84;77.70;98527.69;5062496;27;102776;-72
2022/11/08 03:56:29;;;;;;;6.80;5.80;;;;;;;10.55;77.90;98515.84;5044355;27;103915;-73
2022/11/08 03:58:56;;;;;;;7.65;6.00;;;;;;;10.44;77.54;98514.03;5044873;27;103438;-74
2022/11/08 04:01:24;;;;;;;7.40;5.70;;;;;;;10.04;78.91;98518.72;5059064;27;102997;-74
2022/11/08 04:03:52;;;;;;;4.95;4.50;;;;;;;10.33;79.40;98521.91;5058416;27;102746;-74
2022/11/08 04:06:20;;;;;;;6.75;5.50;;;;;;;10.40;78.52;98517.84;5063145;27;103989;-74
2022/11/08 04:08:49;;;;;;;7.45;5.40;;;;;;;10.42;77.83;98515.91;5041968;27;103260;-73
2022/11/08 04:16:47;;;;;;;6.53;5.53;;;;;;;10.14;78.54;98516.25;5057741;27;103934;-73
2022/11/08 04:22:00;;;;;;;5.80;5.20;;;;;;;10.21;77.80;98514.88;5063843;27;103363;-73
2022/11/08 04:24:29;;;;;;;4.88;4.38;;;;;;;10.27;77.16;98507.31;5044039;27;102583;-74
2022/11/08 04:26:57;;;;;;;7.57;5.75;;;;;;;10.06;76.05;98508.88;5065135;27;103540;-75
2022/11/08 04:29:25;;;;;;;7.43;6.05;;;;;;;9.64;79.45;98507.56;5040480;27;103433;-74
2022/11/08 04:31:53;;;;;;;6.70;5.47;;;;;;;9.85;78.10;98505.19;5061621;27;103994;-74
2022/11/08 04:34:21;;;;;;;8.32;5.72;;;;;;;9.75;78.16;98507.63;5062157;27;102574;-74
2022/11/08 04:36:48;;;;;;;13.30;11.43;;;;;;;9.74;77.17;98508.56;5062435;27;102779;-74
2022/11/08 04:39:16;;;;;;;8.60;6.28;;;;;;;9.21;79.75;98499.19;5055895;27;103007;-73
2022/11/08 04:41:45;;;;;;;6.97;5.45;;;;;;;9.55;80.32;98496.81;5060516;27;103248;-73
2022/11/08 04:44:14;;;;;;;6.30;5.22;;;;;;;9.78;79.31;98488.94;5062711;27;102555;-74
2022/11/08 04:46:42;;;;;;;8.25;6.50;;;;;;;9.51;78.66;98490.94;5040981;27;103066;-74
2022/11/08 04:49:09;;;;;;;6.60;5.00;;;;;;;9.68;79.68;98490.56;5060685;27;103277;-74
2022/11/08 04:51:37;;;;;;;7.32;6.00;;;;;;;9.77;79.21;98487.25;5061209;27;104015;-74
2022/11/08 04:54:06;;;;;;;7.23;5.80;;;;;;;9.79;78.38;98487.16;5042968;27;102844;-74
2022/11/08 04:56:34;;;;;;;6.40;5.63;;;;;;;9.83;79.02;98470.97;5062231;27;102842;-74
2022/11/08 04:59:03;;;;;;;7.32;6.30;;;;;;;9.79;78.63;98482.72;5058337;27;103345;-74
2022/11/08 05:01:38;;;;;;;5.60;4.88;;;;;;;9.98;78.48;98469.03;5056392;27;103440;-72
2022/11/08 05:04:06;;;;;;;7.38;5.82;;;;;;;9.91;77.69;98467.75;5039805;27;102725;-74
2022/11/08 05:06:33;;;;;;;8.93;6.70;;;;;;;9.70;77.24;98470.19;5061531;27;102601;-74
2022/11/08 05:09:03;;;;;;;7.40;6.10;;;;;;;9.82;78.23;98471.91;5042506;27;104018;-74
2022/11/08 05:11:31;;;;;;;7.75;6.78;;;;;;;9.58;78.53;98460.50;5056980;27;103221;-74
2022/11/08 05:13:59;;;;;;;9.55;6.75;;;;;;;9.61;78.99;98455.00;5062097;27;103147;-74
2022/11/08 05:16:30;;;;;;;9.50;6.80;;;;;;;9.60;78.40;98463.88;5058295;27;103055;-74
2022/11/08 05:18:59;;;;;;;7.40;6.25;;;;;;;9.67;78.43;98461.66;5055519;27;103261;-73
2022/11/08 05:24:15;;;;;;;6.10;5.50;;;;;;;9.84;78.33;98463.91;5060871;27;103454;-74
2022/11/08 05:26:45;;;;;;;7.80;5.57;;;;;;;9.91;77.35;98463.34;5041227;27;103900;-74
2022/11/08 05:29:14;;;;;;;7.35;5.35;;;;;;;10.01;77.27;98462.66;5056180;27;103322;-74
2022/11/08 05:31:45;;;;;;;7.63;5.60;;;;;;;10.00;77.20;98463.63;5057187;27;103194;-74
2022/11/08 05:34:14;;;;;;;7.22;6.47;;;;;;;9.81;76.76;98467.63;5058362;27;102940;-74
2022/11/08 05:36:42;;;;;;;7.57;6.10;;;;;;;9.61;78.71;98465.56;5057600;27;104305;-75
2022/11/08 05:39:09;;;;;;;6.05;5.10;;;;;;;9.75;78.69;98468.06;5058532;27;104115;-74
2022/11/08 05:41:37;;;;;;;7.05;5.35;;;;;;;9.83;78.50;98465.69;5057684;27;103473;-74
2022/11/08 05:44:05;;;;;;;5.97;5.30;;;;;;;9.75;78.66;98467.19;5056193;27;103726;-74
2022/11/08 05:46:34;;;;;;;8.27;5.70;;;;;;;9.58;79.35;98457.88;5056498;27;104202;-74
2022/11/08 05:49:03;;;;;;;8.55;6.07;;;;;;;9.41;79.99;98455.59;5056824;27;104144;-74
2022/11/08 05:51:31;;;;;;;8.43;6.00;;;;;;;9.54;79.16;98456.44;5060493;27;103321;-74
2022/11/08 05:53:59;;;;;;;6.43;5.30;;;;;;;9.71;79.20;98453.38;5056802;27;102685;-74
2022/11/08 05:56:27;;;;;;;6.88;5.60;;;;;;;9.70;79.20;98456.16;5054763;27;103965;-74
2022/11/08 05:58:54;;;;;;;8.90;5.72;;;;;;;9.59;78.74;98454.28;5041813;27;103502;-74
2022/11/08 06:01:22;;;;;;;8.45;6.05;;;;;;;9.50;79.41;98454.09;5047144;27;103505;-74
2022/11/08 06:03:50;;;;;;;6.68;5.82;;;;;;;9.52;79.41;98455.66;5034584;27;102746;-75
2022/11/08 06:06:20;;;;;;;5.97;5.38;;;;;;;9.67;79.49;98457.22;5048797;27;103170;-74
2022/11/08 06:08:50;;;;;;;7.57;5.50;;;;;;;9.55;79.73;98450.19;5038378;27;104645;-73
2022/11/08 06:11:23;;;;;;;6.78;5.43;;;;;;;9.52;78.62;98455.66;5036479;27;103205;-71
2022/11/08 06:13:51;;;;;;;7.22;5.75;;;;;;;9.66;79.07;98446.75;5049335;27;102680;-73
2022/11/08 06:16:23;;;;;;;6.82;5.50;;;;;;;9.72;78.73;98446.31;5053170;27;102668;-72
2022/11/08 06:18:51;;;;;;;7.95;5.60;;;;;;;9.66;78.49;98447.59;5052228;27;103294;-73
2022/11/08 06:21:21;;;;;;;7.28;5.97;;;;;;;9.63;79.03;98447.81;5030019;27;104818;-74
2022/11/08 06:23:52;;;;;;;6.97;5.05;;;;;;;9.89;78.18;98438.03;5051990;27;103004;-75
2022/11/08 06:26:23;;;;;;;5.82;5.07;;;;;;;9.86;78.00;98439.09;5036909;27;102913;-75
2022/11/08 06:28:53;;;;;;;7.00;6.15;;;;;;;9.58;78.31;98444.69;5049189;27;104100;-73
2022/11/08 06:31:21;;;;;;;5.78;5.18;;;;;;;9.58;79.33;98449.97;5036406;27;103499;-75
2022/11/08 06:33:51;;;;;;;5.70;5.00;;;;;;;9.80;78.55;98455.38;5051413;27;102612;-73
2022/11/08 06:36:20;;;;;;;7.55;5.43;;;;;;;9.74;77.78;98458.44;5053228;27;104271;-72
2022/11/08 06:38:48;;;;;;;6.10;5.47;;;;;;;9.76;78.68;98458.34;5034348;27;103851;-72
2022/11/08 06:41:19;;;;;;;5.13;4.40;;;;;;;10.03;77.61;98458.09;5053018;27;103035;-74
2022/11/08 06:43:47;;;;;;;7.97;5.87;;;;;;;9.96;77.55;98455.09;5034035;27;102962;-72
2022/11/08 06:46:14;;;;;;;7.70;5.87;;;;;;;9.89;77.74;98457.34;5042280;27;103727;-72
2022/11/08 06:48:42;;;;;;;9.15;6.30;;;;;;;9.66;78.96;98452.88;5035856;27;103233;-71
2022/11/08 06:51:10;;;;;;;7.25;5.18;;;;;;;9.82;78.44;98448.16;5061331;27;103401;-72
2022/11/08 06:53:41;;;;;;;7.63;5.72;;;;;;;9.88;78.64;98447.72;5058914;27;102643;-71
2022/11/08 06:56:09;;;;;;;10.80;5.90;;;;;;;9.65;79.04;98456.50;5055414;27;103600;-71
2022/11/08 06:58:37;;;;;;;8.98;6.35;;;;;;;9.56;80.42;98449.25;5058357;27;103622;-71
2022/11/08 07:01:07;;;;;;;8.73;6.43;;;;;;;9.75;80.41;98446.94;5056506;27;103275;-71
2022/11/08 07:03:35;;;;;;;9.00;6.18;;;;;;;9.93;79.61;98446.56;5057749;27;102830;-71
2022/11/08 07:06:04;;;;;;;9.13;6.35;;;;;;;9.64;80.00;98449.53;5058860;27;103646;-72
2022/11/08 07:08:33;;;;;;;10.68;6.53;;;;;;;9.48;80.74;98448.94;5041586;27;104207;-71
2022/11/08 07:11:03;;;;;;;9.88;6.47;;;;;;;9.59;80.50;98446.38;5055672;27;103424;-71
2022/11/08 07:13:31;;;;;;;7.78;5.95;;;;;;;9.89;80.08;98444.16;5040992;27;102681;-71
2022/11/08 07:16:00;;;;;;;8.10;6.25;;;;;;;10.33;77.88;98450.59;5038908;27;104145;-71
2022/11/08 07:18:28;;;;;;;8.33;6.00;;;;;;;10.31;77.30;98460.41;5056727;27;103894;-71
2022/11/08 07:21:00;;;;;;;7.63;6.43;;;;;;;10.20;78.42;98455.09;5055388;27;103304;-71
2022/11/08 07:23:31;;;;;;;7.70;5.70;;;;;;;10.45;77.88;98462.88;5056206;27;103041;-71
2022/11/08 07:26:01;;;;;;;6.63;5.15;;;;;;;11.01;76.72;98467.31;5058780;27;102950;-71
2022/11/08 07:28:31;;;;;;;5.90;5.10;;;;;;;11.53;74.45;98469.34;5056875;27;103407;-71
2022/11/08 07:31:00;;;;;;;7.43;5.65;;;;;;;11.37;75.00;98471.50;5058717;27;103278;-71
2022/11/08 07:33:28;;;;;;;8.70;5.80;;;;;;;11.24;75.22;98473.44;5048135;27;102711;-71
2022/11/08 07:35:56;;;;;;;5.82;4.80;;;;;;;11.32;75.46;98480.75;5059662;27;103802;-71
2022/11/08 07:38:25;;;;;;;7.13;5.35;;;;;;;11.14;75.78;98471.66;5058096;27;103846;-71
2022/11/08 07:40:56;;;;;;;8.37;5.23;;;;;;;10.84;76.67;98470.41;5061751;27;104257;-71
2022/11/08 07:43:24;;;;;;;6.30;5.20;;;;;;;11.22;75.51;98469.25;5052690;27;102817;-71
2022/11/08 07:45:57;;;;;;;7.50;5.20;;;;;;;11.27;75.21;98475.00;5056436;27;102946;-71
2022/11/08 07:48:26;;;;;;;9.02;6.03;;;;;;;10.59;76.74;98464.47;5058206;27;103362;-71
2022/11/08 07:50:54;;;;;;;8.90;5.70;;;;;;;10.75;76.71;98465.00;5056718;27;104177;-71
2022/11/08 07:53:23;;;;;;;9.13;5.70;;;;;;;10.49;76.86;98461.69;5053486;27;102725;-71
2022/11/08 07:55:52;;;;;;;8.02;6.25;;;;;;;10.58;76.57;98455.72;5054851;27;103379;-71
2022/11/08 07:58:19;;;;;;;6.78;5.53;;;;;;;11.07;75.24;98445.69;5057769;27;103664;-71
2022/11/08 08:00:48;;;;;;;9.15;6.20;;;;;;;11.03;74.79;98433.66;5055196;27;103254;-71
2022/11/08 08:03:18;;;;;;;8.48;6.50;;;;;;;11.37;73.26;98413.31;5058567;27;103951;-71
2022/11/08 08:05:51;;;;;;;8.20;6.25;;;;;;;11.82;73.28;98405.28;5039569;27;103748;-71
2022/11/08 08:08:26;;;;;;;9.40;6.47;;;;;;;12.22;72.08;98416.94;5035186;27;103327;-71
2022/11/08 08:10:57;;;;;;;8.93;6.28;;;;;;;12.74;71.25;98405.44;5056608;27;103512;-71
2022/11/08 08:13:28;;;;;;;9.80;6.55;;;;;;;12.89;68.66;98403.25;5060615;27;102612;-71
2022/11/08 08:15:58;;;;;;;9.13;6.68;;;;;;;12.95;68.58;98408.88;5058076;27;102938;-71
2022/11/08 08:18:28;;;;;;;7.68;6.22;;;;;;;13.15;68.45;98416.00;5059665;27;103349;-71
2022/11/08 08:20:56;;;;;;;10.20;6.13;;;;;;;14.09;66.86;98426.09;5056463;27;103211;-72
2022/11/08 08:23:23;;;;;;;9.75;5.88;;;;;;;15.92;60.30;98429.06;5058210;27;102717;-71
2022/11/08 08:25:51;;;;;;;11.95;6.53;;;;;;;13.27;66.58;98449.41;5056657;27;102811;-72
2022/11/08 08:28:19;;;;;;;9.00;5.97;;;;;;;13.92;66.21;98448.06;5056995;27;103629;-71
2022/11/08 08:30:49;;;;;;;7.05;5.38;;;;;;;14.85;63.39;98446.50;5040332;27;103947;-71
2022/11/08 08:33:18;;;;;;;7.70;5.25;;;;;;;14.82;62.87;98437.97;5057443;27;103792;-72
2022/11/08 08:36:03;;;;;;;7.20;5.30;;;;;;;14.86;62.51;98442.00;5060848;27;103459;-72
2022/11/08 08:38:32;;;;;;;8.80;5.30;;;;;;;14.78;64.07;98441.91;5061581;27;103280;-71
2022/11/08 08:41:01;;;;;;;5.55;4.22;;;;;;;14.28;63.89;98439.41;5061641;27;103238;-71
2022/11/08 08:43:31;;;;;;;7.43;4.53;;;;;;;14.48;63.36;98433.09;5061056;27;102584;-71
2022/11/08 08:45:59;;;;;;;7.40;4.60;;;;;;;14.16;64.03;98440.53;5056835;27;104235;-72
2022/11/08 08:48:28;;;;;;;6.63;4.55;;;;;;;14.16;64.26;98445.84;5058488;27;103417;-71
2022/11/08 08:50:55;;;;;;;7.00;4.82;;;;;;;14.45;64.09;98448.53;5056616;27;103277;-71
2022/11/08 08:53:25;;;;;;;7.55;4.63;;;;;;;15.01;63.58;98445.91;5051747;27;102873;-70
2022/11/08 08:55:52;;;;;;;9.50;4.70;;;;;;;15.10;62.71;98445.03;5056979;27;102681;-70
2022/11/08 08:58:21;;;;;;;6.25;4.63;;;;;;;14.67;63.90;98442.91;5059974;27;103959;-70
2022/11/08 09:00:49;;;;;;;7.15;5.00;;;;;;;14.73;63.46;98447.66;5057292;27;103245;-70
2022/11/08 09:03:37;;;;;;;6.63;4.82;;;;;;;15.03;63.38;98446.59;5039588;27;102814;-70
2022/11/08 09:06:05;;;;;;;6.63;4.60;;;;;;;15.01;62.79;98444.09;5058600;27;102805;-70
2022/11/08 09:08:34;;;;;;;6.53;4.78;;;;;;;14.89;63.09;98437.25;5059136;27;103751;-70
2022/11/08 09:11:04;;;;;;;6.05;5.13;;;;;;;15.24;61.66;98439.22;5041931;27;102928;-70
2022/11/08 09:13:32;;;;;;;7.50;5.05;;;;;;;15.07;62.17;98450.66;5041461;27;102662;-70
2022/11/08 09:16:02;;;;;;;6.53;4.85;;;;;;;15.26;61.11;98458.56;5042797;27;103990;-70
2022/11/08 09:18:30;;;;;;;5.95;4.68;;;;;;;15.74;60.61;98453.03;5060345;27;103208;-71
2022/11/08 09:20:58;;;;;;;6.80;5.10;;;;;;;15.55;61.26;98453.97;5062707;27;103233;-70
2022/11/08 09:23:26;;;;;;;7.03;4.63;;;;;;;15.92;60.35;98450.38;5061418;27;102813;-69
2022/11/08 09:25:59;;;;;;;7.03;4.45;;;;;;;15.72;61.47;98460.31;5059673;27;102691;-70
2022/11/08 09:28:27;;;;;;;5.80;3.87;;;;;;;16.05;59.80;98457.06;5061120;27;103329;-69
2022/11/08 09:31:02;;;;;;;8.63;4.80;;;;;;;14.79;62.79;98452.38;5063319;27;102542;-70
2022/11/08 09:33:30;;;;;;;5.82;4.85;;;;;;;15.63;61.18;98462.03;5057610;27;102644;-70
2022/11/08 09:35:59;;;;;;;6.37;4.77;;;;;;;15.46;62.33;98464.66;5061674;27;104254;-70
2022/11/08 09:38:27;;;;;;;8.15;5.75;;;;;;;15.50;61.14;98456.25;5060165;27;103360;-69
2022/11/08 09:41:19;;;;;;;8.40;6.00;;;;;;;15.26;62.75;98457.72;5059138;27;103325;-69
2022/11/08 09:44:05;;;;;;;7.57;5.22;;;;;;;14.97;62.80;98460.47;5059506;27;102623;-70
2022/11/08 09:46:39;;;;;;;5.70;4.43;;;;;;;14.98;63.18;98460.34;5041562;27;102653;-69
2022/11/08 09:49:15;;;;;;;7.90;4.45;;;;;;;15.13;62.34;98468.66;5061168;27;103271;-70
2022/11/08 09:51:43;;;;;;;5.88;4.50;;;;;;;14.88;63.09;98462.16;5046266;27;103832;-70
2022/11/08 09:54:20;;;;;;;6.80;4.53;;;;;;;14.99;62.37;98461.16;5059714;27;103186;-70
2022/11/08 09:56:51;;;;;;;5.13;4.10;;;;;;;15.06;62.33;98467.59;5056501;27;102845;-69
2022/11/08 09:59:37;;;;;;;6.93;4.70;;;;;;;15.00;62.35;98466.34;5061625;27;104050;-70
2022/11/08 10:02:16;;;;;;;8.50;4.70;;;;;;;14.18;64.83;98472.25;5041699;27;103257;-71
2022/11/08 10:04:53;;;;;;;5.80;4.53;;;;;;;13.86;67.22;98475.16;5058798;27;102641;-70
2022/11/08 10:07:32;;;;;;;8.95;5.22;;;;;;;13.71;67.94;98468.53;5057426;27;103589;-70
2022/11/08 10:10:42;;;;;;;7.80;5.05;;;;;;;13.47;68.03;98460.94;5059778;27;104037;-70
2022/11/08 10:13:21;;;;;;;8.80;5.30;;;;;;;13.95;68.40;98458.38;5021503;27;103604;-70
2022/11/08 10:15:57;;;;;;;7.13;4.80;;;;;;;13.78;67.83;98459.06;5041255;27;102989;-70
2022/11/08 10:18:49;;;;;;;7.05;4.63;;;;;;;13.90;67.89;98453.50;5042466;27;104047;-70
2022/11/08 10:21:30;;;;;;;8.07;5.10;;;;;;;13.79;69.04;98458.91;5043807;27;103352;-70
2022/11/08 10:24:03;;;;;;;10.10;5.20;;;;;;;13.47;69.98;98454.78;5058516;27;103273;-70
2022/11/08 10:26:37;;;;;;;6.13;4.95;;;;;;;13.46;69.29;98461.06;5056450;27;102605;-70
2022/11/08 10:29:16;;;;;;;7.75;4.70;;;;;;;14.12;67.59;98449.72;5057526;27;102766;-70
2022/11/08 10:31:46;;;;;;;9.02;4.70;;;;;;;14.94;66.01;98435.00;5057718;27;103183;-70
2022/11/08 10:34:20;;;;;;;4.25;3.85;;;;;;;15.19;64.47;98440.63;5059041;27;103282;-70
2022/11/08 10:36:52;;;;;;;7.18;4.38;;;;;;;15.30;63.20;98441.31;5043600;27;102818;-70
2022/11/08 10:39:24;;;;;;;6.53;4.20;;;;;;;15.77;62.75;98434.09;5058511;27;102820;-69
2022/11/08 10:42:00;;;;;;;7.73;4.10;;;;;;;15.55;62.69;98437.19;5056032;27;103490;-70
2022/11/08 10:44:29;;;;;;;8.23;4.20;;;;;;;15.62;62.48;98433.75;5058423;27;103240;-70
2022/11/08 10:47:03;;;;;;;7.07;4.20;;;;;;;15.71;62.38;98425.88;5040833;27;102874;-70
2022/11/08 10:49:34;;;;;;;6.43;4.57;;;;;;;15.85;61.32;98428.88;5059985;27;104051;-70
2022/11/08 10:52:16;;;;;;;6.82;4.35;;;;;;;16.02;60.25;98421.88;5038094;27;104477;-71
2022/11/08 10:54:50;;;;;;;8.45;4.60;;;;;;;16.08;60.42;98418.59;5038300;27;104592;-71
2022/11/08 10:57:24;;;;;;;5.10;3.97;;;;;;;16.54;59.05;98421.03;5052792;27;102999;-71
2022/11/08 10:59:54;;;;;;;5.63;4.00;;;;;;;16.67;58.29;98421.44;5053445;27;102984;-70
2022/11/08 11:02:27;;;;;;;5.93;3.90;;;;;;;16.92;57.61;98427.81;5056931;27;103347;-71
2022/11/08 11:05:24;;;;;;;5.03;3.80;;;;;;;16.68;57.97;98415.13;5057559;27;103297;-71
2022/11/08 11:08:05;;;;;;;7.20;4.55;;;;;;;16.89;58.43;98409.47;5058445;27;102655;-71
2022/11/08 11:10:35;;;;;;;7.85;5.03;;;;;;;16.80;57.78;98405.91;5054560;27;104220;-71
2022/11/08 11:13:09;;;;;;;7.47;4.90;;;;;;;16.95;58.16;98408.00;5056870;27;104595;-71
2022/11/08 11:15:44;;;;;;;9.05;5.75;;;;;;;16.93;57.84;98394.78;5038374;27;104344;-71
2022/11/08 11:18:26;;;;;;;7.37;5.87;;;;;;;17.27;57.24;98392.97;5060415;27;102888;-72
2022/11/08 11:21:02;;;;;;;8.85;5.80;;;;;;;17.26;57.73;98395.81;5060750;27;102797;-71
2022/11/08 11:23:40;;;;;;;7.88;5.60;;;;;;;17.45;58.19;98400.91;5057591;27;103356;-72
2022/11/08 11:26:18;;;;;;;10.38;5.55;;;;;;;17.50;57.43;98387.91;5042335;27;102672;-72
2022/11/08 11:29:06;;;;;;;8.80;5.32;;;;;;;17.06;60.33;98389.03;5045375;27;102898;-73
2022/11/08 11:31:37;;;;;;;5.90;3.83;;;;;;;17.70;58.59;98388.50;5062405;27;103884;-71
2022/11/08 11:34:39;;;;;;;7.87;4.03;;;;;;;17.62;58.64;98386.66;5060144;27;103647;-71
2022/11/08 11:37:18;;;;;;;4.70;3.17;;;;;;;17.91;57.46;98376.34;5043072;27;103985;-71
2022/11/08 11:39:57;;;;;;;5.65;3.42;;;;;;;18.84;56.31;98379.53;5056624;27;102600;-72
2022/11/08 11:42:31;;;;;;;4.40;3.50;;;;;;;19.25;54.27;98373.06;5058992;27;102682;-72
2022/11/08 11:45:18;;;;;;;8.45;4.18;;;;;;;19.54;52.71;98359.06;5055058;27;103991;-71
2022/11/08 11:47:53;;;;;;;5.65;3.95;;;;;;;19.96;51.85;98362.16;5058485;27;103276;-72
2022/11/08 11:50:31;;;;;;;5.53;3.80;;;;;;;19.40;52.90;98360.63;5055870;27;103428;-72
2022/11/08 11:53:00;;;;;;;5.72;3.50;;;;;;;19.42;54.16;98357.81;5057334;27;102674;-71
2022/11/08 11:55:41;;;;;;;6.60;3.53;;;;;;;19.92;52.05;98357.34;5054556;27;103326;-71
2022/11/08 11:58:23;;;;;;;6.35;3.50;;;;;;;19.93;51.24;98359.84;5056527;27;103262;-70
2022/11/08 12:00:59;;;;;;;6.30;3.45;;;;;;;19.54;51.85;98351.03;5059932;27;102721;-71
2022/11/08 12:03:43;;;;;;;6.60;3.25;;;;;;;19.22;52.13;98356.50;5059467;27;102922;-71
2022/11/08 12:06:27;;;;;;;4.57;3.33;;;;;;;19.54;52.69;98353.69;5054693;27;103946;-71
2022/11/08 12:09:20;;;;;;;6.03;3.45;;;;;;;19.30;52.58;98348.44;5035891;27;104107;-71